Time;durP1;ratioP1;P1;durP2;ratioP2;P2;SDS_P1;SDS_P2;PMS_P1;PMS_P2;Temp;Humidity;BMP_temperature;BMP_pressure;BME280_temperature;BME280_humidity;BME280_pressure;Samples;Min_cycle;Max_cycle;Signal;HPM_P1;HPM_P2
2021/03/26 00:02:04;;;;;;;0.03;0.03;;;;;;;;;;5072094;28;20565;-51
2021/03/26 00:04:31;;;;;;;0.00;0.00;;;;;;;;;;5075814;28;21042;-50
2021/03/26 00:06:58;;;;;;;5.40;0.30;;;;;;;;;;5072753;28;20170;-53
2021/03/26 00:09:26;;;;;;;0.00;0.00;;;;;;;;;;5074760;28;20485;-54
2021/03/26 00:11:56;;;;;;;12.73;0.93;;;;;;;;;;5076525;28;20693;-51
2021/03/26 00:14:22;;;;;;;0.37;0.37;;;;;;;;;;5071663;28;20641;-54
2021/03/26 00:16:49;;;;;;;0.00;0.00;;;;;;;;;;5072982;28;20197;-53
2021/03/26 00:19:16;;;;;;;0.00;0.00;;;;;;;;;;5070373;28;20179;-51
2021/03/26 00:21:43;;;;;;;0.00;0.00;;;;;;;;;;5075528;28;20209;-54
2021/03/26 00:24:10;;;;;;;2.00;1.90;;;;;;;;;;5074021;28;20178;-54
2021/03/26 00:26:36;;;;;;;0.00;0.00;;;;;;;;;;5068339;28;20271;-53
2021/03/26 00:29:03;;;;;;;0.53;0.07;;;;;;;;;;5003957;28;20236;-53
2021/03/26 00:31:30;;;;;;;0.00;0.00;;;;;;;;;;5026717;28;20181;-53
2021/03/26 00:33:56;;;;;;;0.00;0.00;;;;;;;;;;5075100;28;20215;-50
2021/03/26 00:36:22;;;;;;;1.97;0.73;;;;;;;;;;5068396;28;20328;-53
2021/03/26 00:38:49;;;;;;;2.00;0.73;;;;;;;;;;5070435;28;20205;-51
2021/03/26 00:41:15;;;;;;;0.07;0.07;;;;;;;;;;5065102;28;20193;-53
2021/03/26 00:43:42;;;;;;;0.20;0.20;;;;;;;;;;5051008;28;20187;-53
2021/03/26 00:46:08;;;;;;;0.77;0.63;;;;;;;;;;5067956;28;20191;-54
2021/03/26 00:48:35;;;;;;;0.00;0.00;;;;;;;;;;5065654;28;20251;-49
2021/03/26 00:51:04;;;;;;;2.03;0.67;;;;;;;;;;5057542;28;20201;-54
2021/03/26 00:53:32;;;;;;;0.33;0.17;;;;;;;;;;5074405;28;20231;-53
2021/03/26 00:55:59;;;;;;;0.37;0.37;;;;;;;;;;5071152;28;20190;-53
2021/03/26 00:58:28;;;;;;;0.00;0.00;;;;;;;;;;5069675;28;20201;-55
2021/03/26 01:00:55;;;;;;;0.37;0.37;;;;;;;;;;5072937;28;21218;-51
2021/03/26 01:03:23;;;;;;;1.90;1.80;;;;;;;;;;5071594;28;20247;-58
2021/03/26 01:05:54;;;;;;;0.30;0.30;;;;;;;;;;5070724;28;21614;-58
2021/03/26 01:08:21;;;;;;;0.00;0.00;;;;;;;;;;5063713;28;20191;-58
2021/03/26 01:10:57;;;;;;;1.53;0.23;;;;;;;;;;5054594;28;20556;-58
2021/03/26 01:13:25;;;;;;;0.10;0.10;;;;;;;;;;5062126;28;20252;-58
2021/03/26 01:15:52;;;;;;;9.33;0.73;;;;;;;;;;5060380;28;20230;-58
2021/03/26 01:18:34;;;;;;;0.53;0.40;;;;;;;;;;5065089;28;20200;-57
2021/03/26 01:21:01;;;;;;;0.30;0.30;;;;;;;;;;5070660;28;20181;-57
2021/03/26 01:23:29;;;;;;;0.63;0.63;;;;;;;;;;5064707;28;20200;-58
2021/03/26 01:25:56;;;;;;;0.40;0.40;;;;;;;;;;5060600;28;20179;-58
2021/03/26 01:28:24;;;;;;;2.53;2.53;;;;;;;;;;5069935;28;20181;-57
2021/03/26 01:30:51;;;;;;;0.57;0.57;;;;;;;;;;5068155;28;20182;-57
2021/03/26 01:33:17;;;;;;;0.30;0.20;;;;;;;;;;5072092;28;20174;-57
2021/03/26 01:35:44;;;;;;;1.13;1.13;;;;;;;;;;5065429;28;20197;-58
2021/03/26 01:38:11;;;;;;;0.87;0.40;;;;;;;;;;5063104;28;20802;-58
2021/03/26 01:40:48;;;;;;;3.60;0.83;;;;;;;;;;5071203;28;20206;-57
2021/03/26 01:43:22;;;;;;;1.20;1.10;;;;;;;;;;5065917;28;20197;-58
2021/03/26 01:45:49;;;;;;;1.60;1.50;;;;;;;;;;5068680;28;20208;-58
2021/03/26 01:48:23;;;;;;;0.87;0.70;;;;;;;;;;5045279;28;20190;-58
2021/03/26 01:50:49;;;;;;;1.00;0.90;;;;;;;;;;5050319;28;20187;-58
2021/03/26 01:53:16;;;;;;;1.97;0.93;;;;;;;;;;5061262;28;20188;-58
2021/03/26 01:55:44;;;;;;;6.70;1.03;;;;;;;;;;5049221;28;20270;-58
2021/03/26 01:58:12;;;;;;;6.90;1.03;;;;;;;;;;5063380;28;20298;-58
2021/03/26 02:00:43;;;;;;;2.57;0.93;;;;;;;;;;5062635;28;20186;-58
2021/03/26 02:03:16;;;;;;;3.03;0.67;;;;;;;;;;5068049;28;20167;-57
2021/03/26 02:05:43;;;;;;;0.30;0.30;;;;;;;;;;5062624;28;20269;-57
2021/03/26 02:08:12;;;;;;;9.40;2.30;;;;;;;;;;5065801;28;20180;-57
2021/03/26 02:10:38;;;;;;;0.40;0.40;;;;;;;;;;5066886;28;20182;-57
2021/03/26 02:13:08;;;;;;;2.43;0.50;;;;;;;;;;5063993;28;20272;-58
2021/03/26 02:15:39;;;;;;;2.23;0.60;;;;;;;;;;5067748;28;20221;-58
2021/03/26 02:18:06;;;;;;;2.93;0.30;;;;;;;;;;5069164;28;20243;-58
2021/03/26 02:20:36;;;;;;;0.10;0.10;;;;;;;;;;5071398;28;20495;-58
2021/03/26 02:23:07;;;;;;;0.23;0.23;;;;;;;;;;5065390;28;20695;-58
2021/03/26 02:25:34;;;;;;;0.27;0.27;;;;;;;;;;5075386;28;20177;-57
2021/03/26 02:28:01;;;;;;;0.23;0.23;;;;;;;;;;5063165;28;20291;-58
2021/03/26 02:30:30;;;;;;;0.37;0.20;;;;;;;;;;5079785;28;20699;-58
2021/03/26 02:32:57;;;;;;;6.43;1.43;;;;;;;;;;5063527;28;20209;-57
2021/03/26 02:35:29;;;;;;;0.30;0.30;;;;;;;;;;5071433;28;20270;-58
2021/03/26 02:37:55;;;;;;;0.13;0.13;;;;;;;;;;5064683;28;20399;-58
2021/03/26 02:40:34;;;;;;;1.93;0.33;;;;;;;;;;5074923;28;20190;-58
2021/03/26 02:43:12;;;;;;;0.10;0.10;;;;;;;;;;5061033;28;20254;-58
2021/03/26 02:45:46;;;;;;;0.73;0.50;;;;;;;;;;5066520;28;20190;-57
2021/03/26 02:48:15;;;;;;;4.70;0.73;;;;;;;;;;5069718;28;20187;-57
2021/03/26 02:50:56;;;;;;;0.30;0.20;;;;;;;;;;5075649;28;20186;-57
2021/03/26 02:53:41;;;;;;;1.10;1.10;;;;;;;;;;5075962;28;20233;-58
2021/03/26 02:56:10;;;;;;;0.40;0.40;;;;;;;;;;5072652;28;20186;-58
2021/03/26 02:58:39;;;;;;;0.73;0.67;;;;;;;;;;5066753;28;20842;-58
2021/03/26 03:01:14;;;;;;;0.13;0.13;;;;;;;;;;5069462;28;20182;-58
2021/03/26 03:03:41;;;;;;;0.40;0.40;;;;;;;;;;5066060;28;20436;-58
2021/03/26 03:06:30;;;;;;;0.10;0.10;;;;;;;;;;5071508;28;20192;-58
2021/03/26 03:08:58;;;;;;;0.10;0.10;;;;;;;;;;5069784;28;20182;-58
2021/03/26 03:11:30;;;;;;;0.10;0.10;;;;;;;;;;5071981;28;20196;-58
2021/03/26 03:14:01;;;;;;;0.30;0.30;;;;;;;;;;5068277;28;20183;-58
2021/03/26 03:16:30;;;;;;;2.00;1.90;;;;;;;;;;5066340;28;21173;-58
2021/03/26 03:19:23;;;;;;;0.40;0.40;;;;;;;;;;5073361;28;20189;-57
2021/03/26 03:22:06;;;;;;;5.17;1.37;;;;;;;;;;5042467;28;20957;-58
2021/03/26 03:24:38;;;;;;;0.80;0.80;;;;;;;;;;5065332;28;20187;-58
2021/03/26 03:27:04;;;;;;;0.10;0.10;;;;;;;;;;5073001;28;20239;-58
2021/03/26 03:29:42;;;;;;;1.57;0.60;;;;;;;;;;5069722;28;20699;-58
2021/03/26 03:32:21;;;;;;;0.30;0.30;;;;;;;;;;5069079;28;21022;-58
2021/03/26 03:35:07;;;;;;;0.90;0.70;;;;;;;;;;5074696;28;20694;-58
2021/03/26 03:37:38;;;;;;;1.30;0.60;;;;;;;;;;5071376;28;20205;-58
2021/03/26 03:40:14;;;;;;;0.50;0.50;;;;;;;;;;5070597;28;20185;-58
2021/03/26 03:42:45;;;;;;;0.10;0.10;;;;;;;;;;5073014;28;20181;-58
2021/03/26 03:45:19;;;;;;;0.10;0.10;;;;;;;;;;5070874;28;20984;-58
2021/03/26 03:48:02;;;;;;;5.07;0.90;;;;;;;;;;5065832;28;20546;-58
2021/03/26 03:50:32;;;;;;;0.10;0.10;;;;;;;;;;5068810;28;20525;-58
2021/03/26 03:53:07;;;;;;;0.83;0.83;;;;;;;;;;5069680;28;20194;-58
2021/03/26 03:55:39;;;;;;;0.83;0.60;;;;;;;;;;5071030;28;20191;-58
2021/03/26 03:58:17;;;;;;;0.90;0.63;;;;;;;;;;5073382;28;20955;-58
2021/03/26 04:00:55;;;;;;;0.83;0.83;;;;;;;;;;5071091;28;20570;-58
2021/03/26 04:03:35;;;;;;;7.33;0.40;;;;;;;;;;5069024;28;20334;-58
2021/03/26 04:06:11;;;;;;;0.10;0.10;;;;;;;;;;5066699;28;20524;-58
2021/03/26 04:08:47;;;;;;;0.77;0.53;;;;;;;;;;5066702;28;20253;-58
2021/03/26 04:11:22;;;;;;;0.10;0.10;;;;;;;;;;5065520;28;20174;-59
2021/03/26 04:14:04;;;;;;;0.40;0.40;;;;;;;;;;5067953;28;20640;-59
2021/03/26 04:16:31;;;;;;;4.03;1.07;;;;;;;;;;5068050;28;20521;-58
2021/03/26 04:19:05;;;;;;;0.30;0.30;;;;;;;;;;5066380;28;20293;-59
2021/03/26 04:21:35;;;;;;;0.10;0.10;;;;;;;;;;5073065;28;20191;-59
2021/03/26 04:24:03;;;;;;;0.73;0.73;;;;;;;;;;5068429;28;20280;-58
2021/03/26 04:26:36;;;;;;;3.47;3.13;;;;;;;;;;5068859;28;20186;-59
2021/03/26 04:29:09;;;;;;;2.83;0.57;;;;;;;;;;5065565;28;20196;-58
2021/03/26 04:31:38;;;;;;;0.10;0.10;;;;;;;;;;5070320;28;20591;-58
2021/03/26 04:34:05;;;;;;;0.47;0.47;;;;;;;;;;5063014;28;20652;-58
2021/03/26 04:36:54;;;;;;;3.00;0.63;;;;;;;;;;5064638;28;20210;-58
2021/03/26 04:39:24;;;;;;;0.10;0.10;;;;;;;;;;5061287;28;20839;-59
2021/03/26 04:41:55;;;;;;;0.77;0.77;;;;;;;;;;5066931;28;20742;-59
2021/03/26 04:44:36;;;;;;;0.13;0.13;;;;;;;;;;5065708;28;20232;-59
2021/03/26 04:47:07;;;;;;;0.20;0.20;;;;;;;;;;5066913;28;20276;-58
2021/03/26 04:49:39;;;;;;;0.10;0.10;;;;;;;;;;5064183;28;20837;-59
2021/03/26 04:52:11;;;;;;;0.67;0.67;;;;;;;;;;5068165;28;20200;-58
2021/03/26 04:54:44;;;;;;;1.50;1.33;;;;;;;;;;5066427;28;20189;-58
2021/03/26 04:57:26;;;;;;;3.37;0.57;;;;;;;;;;5068472;28;20208;-58
2021/03/26 05:00:13;;;;;;;0.10;0.10;;;;;;;;;;5064451;28;20198;-59
2021/03/26 05:02:42;;;;;;;0.10;0.10;;;;;;;;;;5074837;28;20178;-58
2021/03/26 05:05:10;;;;;;;0.30;0.20;;;;;;;;;;5065220;28;20189;-58
2021/03/26 05:07:40;;;;;;;5.00;2.00;;;;;;;;;;5063572;28;20648;-58
2021/03/26 05:10:09;;;;;;;3.10;1.20;;;;;;;;;;5063866;28;20190;-58
2021/03/26 05:12:37;;;;;;;0.93;0.60;;;;;;;;;;5083386;27;20226;-58
2021/03/26 05:15:03;;;;;;;3.00;0.87;;;;;;;;;;5073679;28;21162;-58
2021/03/26 05:17:40;;;;;;;2.57;0.30;;;;;;;;;;5065507;28;20497;-58
2021/03/26 05:20:22;;;;;;;0.90;0.90;;;;;;;;;;5063940;28;20173;-58
2021/03/26 05:23:14;;;;;;;0.60;0.40;;;;;;;;;;5078787;28;20185;-58
2021/03/26 05:25:46;;;;;;;0.10;0.10;;;;;;;;;;5066192;28;21044;-58
2021/03/26 05:28:23;;;;;;;0.30;0.30;;;;;;;;;;5064799;28;20305;-58
2021/03/26 05:30:51;;;;;;;3.77;0.67;;;;;;;;;;5065845;28;20520;-58
2021/03/26 05:33:20;;;;;;;1.90;1.70;;;;;;;;;;5065005;28;20197;-59
2021/03/26 05:35:47;;;;;;;6.33;1.30;;;;;;;;;;5064374;28;20186;-59
2021/03/26 05:38:17;;;;;;;15.10;1.43;;;;;;;;;;5065065;28;20612;-58
2021/03/26 05:40:46;;;;;;;0.10;0.10;;;;;;;;;;5066359;28;20228;-59
2021/03/26 05:43:12;;;;;;;3.00;0.93;;;;;;;;;;5063363;28;20193;-58
2021/03/26 05:45:39;;;;;;;0.20;0.20;;;;;;;;;;5065812;28;20529;-58
2021/03/26 05:48:20;;;;;;;0.50;0.50;;;;;;;;;;5066562;28;20186;-58
2021/03/26 05:50:55;;;;;;;1.40;1.33;;;;;;;;;;5064965;28;20197;-58
2021/03/26 05:53:42;;;;;;;0.50;0.50;;;;;;;;;;5067770;28;20803;-58
2021/03/26 05:56:11;;;;;;;5.20;1.47;;;;;;;;;;5062099;28;20270;-58
2021/03/26 05:58:56;;;;;;;0.20;0.20;;;;;;;;;;5068383;28;20227;-58
2021/03/26 06:01:31;;;;;;;0.50;0.50;;;;;;;;;;5076622;28;20182;-58
2021/03/26 06:04:16;;;;;;;0.10;0.10;;;;;;;;;;5073623;28;20193;-59
2021/03/26 06:06:42;;;;;;;0.10;0.10;;;;;;;;;;5069188;28;20192;-59
2021/03/26 06:09:09;;;;;;;0.20;0.20;;;;;;;;;;5069963;28;20224;-61
2021/03/26 06:12:02;;;;;;;0.30;0.30;;;;;;;;;;5075942;28;20622;-58
2021/03/26 06:14:43;;;;;;;7.17;1.43;;;;;;;;;;5067605;28;20185;-58
2021/03/26 06:17:16;;;;;;;2.43;1.13;;;;;;;;;;5077500;28;20452;-58
2021/03/26 06:20:01;;;;;;;0.40;0.40;;;;;;;;;;5064581;28;20182;-58
2021/03/26 06:22:39;;;;;;;0.10;0.10;;;;;;;;;;5065795;28;20238;-59
2021/03/26 06:25:08;;;;;;;1.57;1.47;;;;;;;;;;5067652;28;20174;-58
2021/03/26 06:27:35;;;;;;;3.30;0.97;;;;;;;;;;5051145;28;20186;-58
2021/03/26 06:30:01;;;;;;;0.10;0.10;;;;;;;;;;5075823;28;21007;-58
2021/03/26 06:32:28;;;;;;;2.17;0.70;;;;;;;;;;5071792;28;20934;-58
2021/03/26 06:35:09;;;;;;;6.77;1.13;;;;;;;;;;5078498;28;20234;-58
2021/03/26 06:37:48;;;;;;;0.20;0.20;;;;;;;;;;5074565;28;21032;-58
2021/03/26 06:40:33;;;;;;;0.57;0.37;;;;;;;;;;5068393;28;20552;-58
2021/03/26 06:43:06;;;;;;;0.40;0.40;;;;;;;;;;5067046;28;20214;-58
2021/03/26 06:45:42;;;;;;;0.10;0.10;;;;;;;;;;5074409;28;20663;-58
2021/03/26 06:48:14;;;;;;;0.10;0.10;;;;;;;;;;5067586;28;20547;-59
2021/03/26 06:50:46;;;;;;;0.10;0.10;;;;;;;;;;5075929;28;20242;-58
2021/03/26 06:53:28;;;;;;;0.10;0.10;;;;;;;;;;5062100;28;20187;-58
2021/03/26 06:55:54;;;;;;;0.20;0.20;;;;;;;;;;5074484;28;20186;-58
2021/03/26 06:58:31;;;;;;;2.40;0.50;;;;;;;;;;5067353;28;20873;-58
2021/03/26 07:01:00;;;;;;;0.10;0.10;;;;;;;;;;5076135;28;20564;-58
2021/03/26 07:03:27;;;;;;;0.10;0.10;;;;;;;;;;5075032;28;20180;-58
2021/03/26 07:06:12;;;;;;;0.10;0.10;;;;;;;;;;5068832;28;20654;-58
2021/03/26 07:08:38;;;;;;;0.20;0.20;;;;;;;;;;5076465;28;20193;-58
2021/03/26 07:11:23;;;;;;;4.93;1.63;;;;;;;;;;5075572;28;20186;-58
2021/03/26 07:14:09;;;;;;;1.20;1.20;;;;;;;;;;5075161;28;20181;-58
2021/03/26 07:16:41;;;;;;;0.30;0.30;;;;;;;;;;5066793;28;20765;-58
2021/03/26 07:19:14;;;;;;;0.63;0.50;;;;;;;;;;5071889;28;20190;-59
2021/03/26 07:21:55;;;;;;;0.30;0.23;;;;;;;;;;5065756;28;20182;-58
2021/03/26 07:24:28;;;;;;;1.53;0.60;;;;;;;;;;5064352;28;20631;-58
2021/03/26 07:27:06;;;;;;;1.07;0.43;;;;;;;;;;5069977;28;20608;-58
2021/03/26 07:29:48;;;;;;;0.70;0.50;;;;;;;;;;5070383;28;20906;-58
2021/03/26 07:32:28;;;;;;;1.40;1.03;;;;;;;;;;5069796;28;20768;-58
2021/03/26 07:35:07;;;;;;;0.40;0.40;;;;;;;;;;5070733;28;20189;-58
2021/03/26 07:37:45;;;;;;;0.67;0.67;;;;;;;;;;5071811;28;20734;-58
2021/03/26 07:40:24;;;;;;;1.57;1.47;;;;;;;;;;5063340;28;20221;-58
2021/03/26 07:43:09;;;;;;;0.30;0.30;;;;;;;;;;5066037;28;20185;-59
2021/03/26 07:45:41;;;;;;;2.50;0.97;;;;;;;;;;5067470;28;20515;-59
2021/03/26 07:48:32;;;;;;;0.40;0.40;;;;;;;;;;5066555;28;20459;-58
2021/03/26 07:51:01;;;;;;;0.10;0.10;;;;;;;;;;5061998;28;20835;-58
2021/03/26 07:53:40;;;;;;;0.10;0.10;;;;;;;;;;5069869;28;20171;-59
2021/03/26 07:56:09;;;;;;;0.83;0.83;;;;;;;;;;5066684;28;20199;-58
2021/03/26 07:59:05;;;;;;;0.60;0.60;;;;;;;;;;5074036;28;20187;-58
2021/03/26 08:01:46;;;;;;;0.17;0.10;;;;;;;;;;5069826;28;20234;-58
2021/03/26 08:04:20;;;;;;;0.50;0.50;;;;;;;;;;5069293;28;20937;-58
2021/03/26 08:06:49;;;;;;;0.43;0.43;;;;;;;;;;5067953;28;20446;-58
2021/03/26 08:09:25;;;;;;;0.20;0.20;;;;;;;;;;5074267;28;20639;-58
2021/03/26 08:12:21;;;;;;;1.33;0.30;;;;;;;;;;5068668;28;20181;-58
2021/03/26 08:14:47;;;;;;;2.47;0.50;;;;;;;;;;4984540;28;20886;-58
2021/03/26 08:17:17;;;;;;;1.43;0.63;;;;;;;;;;5068729;28;20490;-58
2021/03/26 08:20:00;;;;;;;1.23;0.33;;;;;;;;;;5067669;28;20190;-58
2021/03/26 08:22:44;;;;;;;0.33;0.20;;;;;;;;;;5071036;28;20194;-58
2021/03/26 08:25:14;;;;;;;0.40;0.40;;;;;;;;;;5071317;28;20474;-58
2021/03/26 08:27:44;;;;;;;0.10;0.10;;;;;;;;;;5066006;28;20763;-58
2021/03/26 08:30:22;;;;;;;0.37;0.37;;;;;;;;;;5069353;28;20253;-58
2021/03/26 08:33:07;;;;;;;2.23;1.47;;;;;;;;;;5060494;28;20956;-58
2021/03/26 08:35:37;;;;;;;0.07;0.07;;;;;;;;;;5067231;28;20403;-58
2021/03/26 08:38:19;;;;;;;0.73;0.73;;;;;;;;;;5064524;28;20296;-58
2021/03/26 08:41:04;;;;;;;0.20;0.20;;;;;;;;;;5068180;28;20182;-58
2021/03/26 13:14:50;;;;;;;0.00;0.00;;;;;;;;;;5052475;28;20589;-57
2021/03/26 13:17:23;;;;;;;0.30;0.10;;;;;;;;;;5055150;28;20179;-57
2021/03/26 13:19:50;;;;;;;0.17;0.00;;;;;;;;;;5061924;28;20637;-57
2021/03/26 13:22:19;;;;;;;1.17;0.20;;;;;;;;;;5050169;28;20354;-57
2021/03/26 13:24:54;;;;;;;1.43;0.10;;;;;;;;;;5054987;28;20180;-57
2021/03/26 13:27:20;;;;;;;0.23;0.23;;;;;;;;;;5053381;28;20189;-57
2021/03/26 13:29:52;;;;;;;0.00;0.00;;;;;;;;;;5051899;28;20198;-57
2021/03/26 13:32:21;;;;;;;0.10;0.10;;;;;;;;;;5050744;28;20182;-57
2021/03/26 13:34:53;;;;;;;0.60;0.40;;;;;;;;;;5055749;28;20277;-57
2021/03/26 13:37:22;;;;;;;0.00;0.00;;;;;;;;;;5052422;28;20627;-57
2021/03/26 13:39:52;;;;;;;0.00;0.00;;;;;;;;;;5053563;28;20712;-57
2021/03/26 13:42:18;;;;;;;1.07;0.97;;;;;;;;;;5053216;28;20666;-57
2021/03/26 13:45:07;;;;;;;1.40;0.20;;;;;;;;;;5049862;28;20256;-57
2021/03/26 13:47:40;;;;;;;0.00;0.00;;;;;;;;;;5054902;28;20628;-57
2021/03/26 13:50:10;;;;;;;0.00;0.00;;;;;;;;;;5053297;28;20182;-57
2021/03/26 13:52:40;;;;;;;1.10;0.30;;;;;;;;;;5051106;28;20648;-58
2021/03/26 13:55:15;;;;;;;0.40;0.27;;;;;;;;;;5052173;28;20207;-60
2021/03/26 13:57:43;;;;;;;0.20;0.10;;;;;;;;;;5050156;28;20194;-57
2021/03/26 14:00:16;;;;;;;0.00;0.00;;;;;;;;;;5052176;28;20187;-58
2021/03/26 14:02:44;;;;;;;0.40;0.20;;;;;;;;;;5050424;28;20247;-57
2021/03/26 14:05:17;;;;;;;5.30;0.67;;;;;;;;;;5050313;28;20257;-57
2021/03/26 14:07:45;;;;;;;0.00;0.00;;;;;;;;;;5052611;28;20191;-57
2021/03/26 14:10:19;;;;;;;0.37;0.20;;;;;;;;;;5051395;28;20187;-57
2021/03/26 14:12:47;;;;;;;0.40;0.00;;;;;;;;;;5049988;28;20230;-58
2021/03/26 14:15:19;;;;;;;1.27;0.40;;;;;;;;;;5051851;28;20274;-57
2021/03/26 14:17:48;;;;;;;0.17;0.17;;;;;;;;;;5050513;28;20187;-57
2021/03/26 14:20:23;;;;;;;0.30;0.23;;;;;;;;;;5049544;28;20198;-57
2021/03/26 14:23:03;;;;;;;0.23;0.23;;;;;;;;;;5049106;28;20191;-57
2021/03/26 14:25:52;;;;;;;1.23;0.20;;;;;;;;;;5043126;28;20544;-57
2021/03/26 14:28:19;;;;;;;0.03;0.03;;;;;;;;;;5037644;28;20203;-57
2021/03/26 14:30:46;;;;;;;1.93;0.20;;;;;;;;;;5036775;28;20226;-57
2021/03/26 14:33:18;;;;;;;0.07;0.07;;;;;;;;;;5040183;28;20227;-57
2021/03/26 14:35:56;;;;;;;0.00;0.00;;;;;;;;;;5043401;28;20738;-58
2021/03/26 14:38:23;;;;;;;0.00;0.00;;;;;;;;;;5037158;28;20190;-58
2021/03/26 14:41:05;;;;;;;0.00;0.00;;;;;;;;;;5037800;28;20247;-58
2021/03/26 14:43:32;;;;;;;0.63;0.10;;;;;;;;;;5038779;28;20198;-58
2021/03/26 14:46:00;;;;;;;0.87;0.47;;;;;;;;;;5037215;28;20291;-58
2021/03/26 14:48:38;;;;;;;0.10;0.10;;;;;;;;;;5040465;28;20195;-57
2021/03/26 14:51:13;;;;;;;0.17;0.13;;;;;;;;;;5039845;28;20190;-58
2021/03/26 14:53:52;;;;;;;3.03;0.40;;;;;;;;;;5039215;28;20214;-58
2021/03/26 14:56:41;;;;;;;0.10;0.10;;;;;;;;;;5037809;28;20202;-57
2021/03/26 14:59:14;;;;;;;0.00;0.00;;;;;;;;;;5034735;28;20202;-58
2021/03/26 15:01:43;;;;;;;0.60;0.60;;;;;;;;;;5037954;28;20613;-57
2021/03/26 15:04:25;;;;;;;0.00;0.00;;;;;;;;;;5034215;28;20183;-58
2021/03/26 15:06:57;;;;;;;0.30;0.17;;;;;;;;;;5038170;28;20191;-58
2021/03/26 15:09:30;;;;;;;0.20;0.20;;;;;;;;;;5035737;28;20187;-58
2021/03/26 15:11:56;;;;;;;2.00;0.53;;;;;;;;;;5037904;28;20191;-58
2021/03/26 15:14:23;;;;;;;1.20;0.50;;;;;;;;;;5038769;28;20243;-58
2021/03/26 15:17:00;;;;;;;0.43;0.20;;;;;;;;;;5039660;28;20184;-58
2021/03/26 15:19:28;;;;;;;2.87;0.50;;;;;;;;;;5042120;28;20539;-58
2021/03/26 15:22:00;;;;;;;0.17;0.07;;;;;;;;;;5050484;28;20781;-58
2021/03/26 15:24:39;;;;;;;0.00;0.00;;;;;;;;;;5034477;28;20257;-58
2021/03/26 15:27:17;;;;;;;0.00;0.00;;;;;;;;;;5036349;28;20392;-58
2021/03/26 15:30:10;;;;;;;0.00;0.00;;;;;;;;;;5037767;28;20210;-58
2021/03/26 15:32:48;;;;;;;0.67;0.30;;;;;;;;;;5034913;28;20731;-58
2021/03/26 15:35:15;;;;;;;0.00;0.00;;;;;;;;;;5038102;28;20861;-58
2021/03/26 15:37:41;;;;;;;0.20;0.20;;;;;;;;;;5037166;28;20751;-58
2021/03/26 15:40:11;;;;;;;0.00;0.00;;;;;;;;;;5037411;28;20222;-58
2021/03/26 15:42:46;;;;;;;1.13;0.47;;;;;;;;;;5037418;28;20206;-58
2021/03/26 15:45:33;;;;;;;3.03;0.53;;;;;;;;;;5038039;28;20190;-57
2021/03/26 15:48:06;;;;;;;7.20;6.70;;;;;;;;;;5037924;28;20330;-56
2021/03/26 15:50:35;;;;;;;0.10;0.10;;;;;;;;;;5036844;28;20188;-57
2021/03/26 15:53:05;;;;;;;0.13;0.00;;;;;;;;;;5037532;28;20215;-58
2021/03/26 15:55:37;;;;;;;3.50;1.00;;;;;;;;;;5037771;28;20188;-58
2021/03/26 15:58:22;;;;;;;0.00;0.00;;;;;;;;;;5037238;28;20186;-58
2021/03/26 16:00:52;;;;;;;0.83;0.50;;;;;;;;;;5029911;28;20190;-58
2021/03/26 16:03:30;;;;;;;34.47;1.23;;;;;;;;;;5040492;28;20641;-58
2021/03/26 16:06:10;;;;;;;1.07;0.30;;;;;;;;;;5036359;28;20851;-58
2021/03/26 16:08:43;;;;;;;1.23;1.23;;;;;;;;;;5036158;28;20240;-58
2021/03/26 16:11:21;;;;;;;0.00;0.00;;;;;;;;;;5034959;28;20754;-57
2021/03/26 16:13:48;;;;;;;0.00;0.00;;;;;;;;;;5036379;28;20232;-59
2021/03/26 16:16:24;;;;;;;5.17;1.90;;;;;;;;;;5038687;28;20194;-57
2021/03/26 16:18:56;;;;;;;1.20;0.23;;;;;;;;;;5038530;28;20183;-57
2021/03/26 16:21:40;;;;;;;1.60;0.30;;;;;;;;;;5037084;28;20182;-58
2021/03/26 16:24:17;;;;;;;0.00;0.00;;;;;;;;;;5036798;28;20307;-58
2021/03/26 16:26:47;;;;;;;0.00;0.00;;;;;;;;;;5037794;28;20345;-57
2021/03/26 16:29:16;;;;;;;0.53;0.10;;;;;;;;;;5034951;28;20197;-57
2021/03/26 16:32:06;;;;;;;1.77;0.23;;;;;;;;;;5045644;28;20560;-58
2021/03/26 16:34:53;;;;;;;0.00;0.00;;;;;;;;;;5031852;28;20318;-58
2021/03/26 16:37:25;;;;;;;4.07;0.20;;;;;;;;;;5037791;28;20862;-58
2021/03/26 16:40:10;;;;;;;2.90;0.83;;;;;;;;;;5035294;28;20215;-57
2021/03/26 16:42:49;;;;;;;0.00;0.00;;;;;;;;;;5039808;28;20358;-57
2021/03/26 16:45:27;;;;;;;4.00;0.30;;;;;;;;;;5031409;28;20369;-57
2021/03/26 16:48:12;;;;;;;1.70;0.53;;;;;;;;;;5036571;28;20553;-58
2021/03/26 16:50:41;;;;;;;0.43;0.43;;;;;;;;;;5036417;28;20183;-57
2021/03/26 16:53:26;;;;;;;0.13;0.13;;;;;;;;;;5036808;28;20211;-57
2021/03/26 16:56:11;;;;;;;0.97;0.47;;;;;;;;;;5034554;28;20197;-57
2021/03/26 16:58:53;;;;;;;0.00;0.00;;;;;;;;;;5035177;28;20253;-57
2021/03/26 17:01:38;;;;;;;0.00;0.00;;;;;;;;;;5035582;28;20646;-57
2021/03/26 17:04:26;;;;;;;0.00;0.00;;;;;;;;;;5036341;28;20192;-57
2021/03/26 17:06:52;;;;;;;0.00;0.00;;;;;;;;;;5035922;28;20278;-57
2021/03/26 17:09:22;;;;;;;0.03;0.03;;;;;;;;;;5036166;28;21062;-57
2021/03/26 17:11:57;;;;;;;0.00;0.00;;;;;;;;;;5033324;28;20256;-57
2021/03/26 17:14:42;;;;;;;0.00;0.00;;;;;;;;;;5036246;28;20238;-57
2021/03/26 17:17:08;;;;;;;1.57;0.63;;;;;;;;;;5035961;28;20180;-57
2021/03/26 17:19:53;;;;;;;0.73;0.73;;;;;;;;;;5037571;28;20718;-57
2021/03/26 17:22:38;;;;;;;2.37;0.23;;;;;;;;;;5037323;28;20771;-56
2021/03/26 17:25:17;;;;;;;0.47;0.03;;;;;;;;;;5033659;28;20183;-57
2021/03/26 17:28:02;;;;;;;0.00;0.00;;;;;;;;;;5034133;28;20213;-57
2021/03/26 17:30:38;;;;;;;0.00;0.00;;;;;;;;;;5034955;28;20691;-57
2021/03/26 17:33:05;;;;;;;1.60;0.30;;;;;;;;;;5031871;28;20269;-57
2021/03/26 17:35:57;;;;;;;1.47;0.07;;;;;;;;;;5037179;28;20186;-57
2021/03/26 17:38:36;;;;;;;2.20;0.77;;;;;;;;;;5030850;28;20200;-57
2021/03/26 17:41:21;;;;;;;2.30;0.77;;;;;;;;;;5035564;28;20246;-57
2021/03/26 17:43:56;;;;;;;0.60;0.00;;;;;;;;;;5032130;28;20218;-57
2021/03/26 17:46:29;;;;;;;0.20;0.20;;;;;;;;;;5034949;28;20384;-58
2021/03/26 17:48:56;;;;;;;1.30;0.47;;;;;;;;;;5036516;28;20197;-58
2021/03/26 17:51:25;;;;;;;1.03;0.93;;;;;;;;;;5036783;28;20645;-57
2021/03/26 17:53:54;;;;;;;0.20;0.20;;;;;;;;;;5033571;28;20383;-57
2021/03/26 17:56:39;;;;;;;0.57;0.57;;;;;;;;;;5035985;28;20238;-58
2021/03/26 17:59:20;;;;;;;2.47;0.43;;;;;;;;;;5035865;28;20277;-57
2021/03/26 18:02:25;;;;;;;0.23;0.23;;;;;;;;;;5045613;28;20315;-58
2021/03/26 18:04:55;;;;;;;0.00;0.00;;;;;;;;;;4995042;28;20679;-58
2021/03/26 18:07:21;;;;;;;0.00;0.00;;;;;;;;;;4996559;28;20185;-58
2021/03/26 18:09:48;;;;;;;0.00;0.00;;;;;;;;;;5016348;28;20203;-58
2021/03/26 18:12:38;;;;;;;0.43;0.43;;;;;;;;;;5039231;28;20716;-57
2021/03/26 18:15:04;;;;;;;0.30;0.00;;;;;;;;;;5039179;28;20270;-58
2021/03/26 18:17:34;;;;;;;0.00;0.00;;;;;;;;;;5039643;28;20184;-58
2021/03/26 18:20:09;;;;;;;0.10;0.10;;;;;;;;;;5038896;28;20664;-58
2021/03/26 18:22:46;;;;;;;10.83;0.40;;;;;;;;;;5035592;28;20415;-58
2021/03/26 18:25:13;;;;;;;2.53;0.60;;;;;;;;;;5039643;28;20264;-57
2021/03/26 18:27:39;;;;;;;0.93;0.20;;;;;;;;;;5039918;28;20180;-58
2021/03/26 18:30:12;;;;;;;0.50;0.40;;;;;;;;;;5041772;28;20211;-58
2021/03/26 18:32:40;;;;;;;4.17;0.40;;;;;;;;;;5041123;28;20187;-57
2021/03/26 18:35:19;;;;;;;0.73;0.53;;;;;;;;;;5038802;28;20200;-57
2021/03/26 18:38:00;;;;;;;1.37;1.27;;;;;;;;;;5037583;28;20188;-58
2021/03/26 18:40:39;;;;;;;0.00;0.00;;;;;;;;;;5039299;28;20562;-58
2021/03/26 18:43:06;;;;;;;0.83;0.10;;;;;;;;;;5034602;28;20215;-57
2021/03/26 18:45:32;;;;;;;0.03;0.03;;;;;;;;;;5038666;28;20198;-57
2021/03/26 18:48:18;;;;;;;1.50;0.03;;;;;;;;;;5040662;28;20187;-57
2021/03/26 18:51:02;;;;;;;0.30;0.30;;;;;;;;;;5035714;28;20215;-57
2021/03/26 18:53:29;;;;;;;0.20;0.20;;;;;;;;;;5035756;28;20202;-57
2021/03/26 18:56:06;;;;;;;0.30;0.10;;;;;;;;;;5039027;28;20835;-57
2021/03/26 18:58:40;;;;;;;0.47;0.47;;;;;;;;;;5038046;28;21054;-58
2021/03/26 19:01:26;;;;;;;0.20;0.20;;;;;;;;;;5036465;28;20283;-58
2021/03/26 19:04:03;;;;;;;0.00;0.00;;;;;;;;;;5034566;28;20857;-57
2021/03/26 19:06:29;;;;;;;20.77;1.07;;;;;;;;;;5040066;28;20188;-57
2021/03/26 19:09:28;;;;;;;0.00;0.00;;;;;;;;;;5037385;28;20214;-57
2021/03/26 19:11:54;;;;;;;1.33;0.10;;;;;;;;;;5035317;28;20689;-57
2021/03/26 19:14:39;;;;;;;1.27;0.20;;;;;;;;;;5040956;28;20237;-58
2021/03/26 19:17:14;;;;;;;0.33;0.17;;;;;;;;;;5039853;28;20299;-58
2021/03/26 19:19:44;;;;;;;0.40;0.10;;;;;;;;;;5040072;28;20358;-57
2021/03/26 19:22:22;;;;;;;0.00;0.00;;;;;;;;;;5040167;28;20897;-58
2021/03/26 19:25:01;;;;;;;0.00;0.00;;;;;;;;;;5043994;28;20277;-59
2021/03/26 19:27:28;;;;;;;0.00;0.00;;;;;;;;;;5039955;28;20249;-59
2021/03/26 19:30:03;;;;;;;0.13;0.00;;;;;;;;;;5038967;28;20679;-58
2021/03/26 19:32:48;;;;;;;1.03;0.27;;;;;;;;;;5040345;28;20191;-59
2021/03/26 19:35:14;;;;;;;2.00;0.40;;;;;;;;;;5040123;28;20203;-57
2021/03/26 19:37:46;;;;;;;2.73;0.33;;;;;;;;;;5039831;28;20613;-57
2021/03/26 19:40:16;;;;;;;0.00;0.00;;;;;;;;;;5038974;28;20841;-59
2021/03/26 19:42:55;;;;;;;1.40;1.40;;;;;;;;;;5038373;28;20282;-58
2021/03/26 19:45:21;;;;;;;0.00;0.00;;;;;;;;;;5038519;28;20401;-57
2021/03/26 19:47:57;;;;;;;0.00;0.00;;;;;;;;;;5039238;28;20800;-57
2021/03/26 19:50:28;;;;;;;0.37;0.37;;;;;;;;;;5039724;28;20194;-58
2021/03/26 19:53:13;;;;;;;0.00;0.00;;;;;;;;;;5040129;28;20198;-58
2021/03/26 19:55:44;;;;;;;0.00;0.00;;;;;;;;;;5039756;28;20234;-58